createdAt,value
2022-10-02T00:02:12.750Z,11.52
2022-10-02T00:05:09.201Z,12.65
2022-10-02T00:08:21.986Z,13.13
2022-10-02T00:11:38.414Z,12.93
2022-10-02T00:14:27.784Z,12.93
2022-10-02T00:17:37.004Z,12.95
2022-10-02T00:20:38.338Z,14.32
2022-10-02T00:23:47.377Z,13.95
2022-10-02T00:29:51.441Z,13.85
2022-10-02T00:32:39.144Z,14.27
2022-10-02T00:35:33.806Z,15.27
2022-10-02T00:38:23.287Z,14.32
2022-10-02T00:41:16.369Z,15.60
2022-10-02T00:44:16.340Z,14.98
2022-10-02T00:47:31.975Z,15.07
2022-10-02T00:50:22.780Z,15.20
2022-10-02T00:56:14.068Z,14.57
2022-10-02T00:59:20.365Z,14.95
2022-10-02T01:02:49.385Z,15.00
2022-10-02T01:05:34.859Z,13.27
2022-10-02T01:08:21.142Z,14.88
2022-10-02T01:11:07.876Z,13.45
2022-10-02T01:13:53.073Z,13.30
2022-10-02T01:16:41.330Z,13.52
2022-10-02T01:19:41.377Z,13.30
2022-10-02T01:22:42.400Z,13.20
2022-10-02T01:25:27.841Z,13.18
2022-10-02T01:28:12.577Z,13.25
2022-10-02T01:31:04.480Z,13.40
2022-10-02T01:33:50.184Z,13.80
2022-10-02T01:36:35.382Z,14.48
2022-10-02T01:39:21.931Z,14.75
2022-10-02T01:42:06.963Z,13.68
2022-10-02T01:44:51.967Z,15.13
2022-10-02T01:47:46.384Z,14.07
2022-10-02T01:50:31.102Z,13.80
2022-10-02T01:53:43.395Z,14.27
2022-10-02T01:56:44.985Z,13.93
2022-10-02T01:59:35.501Z,14.55
2022-10-02T02:02:46.425Z,13.75
2022-10-02T02:06:06.737Z,12.10
2022-10-02T02:09:02.024Z,12.73
2022-10-02T02:12:01.229Z,12.13
2022-10-02T02:14:50.323Z,12.10
2022-10-02T02:17:50.266Z,11.77
2022-10-02T02:20:46.781Z,11.55
2022-10-02T02:23:35.580Z,12.30
2022-10-02T02:26:22.313Z,11.55
2022-10-02T02:29:09.010Z,11.35
2022-10-02T02:31:57.756Z,11.43
2022-10-02T02:34:47.665Z,12.27
2022-10-02T02:37:36.940Z,12.38
2022-10-02T02:40:28.924Z,14.00
2022-10-02T02:43:34.501Z,13.85
2022-10-02T02:46:31.777Z,14.20
2022-10-02T02:49:16.718Z,15.32
2022-10-02T02:52:04.719Z,15.95
2022-10-02T02:55:02.958Z,15.73
2022-10-02T02:57:54.555Z,15.70
2022-10-02T03:00:39.456Z,16.05
2022-10-02T03:03:25.110Z,16.60
2022-10-02T03:06:16.644Z,17.23
2022-10-02T03:09:02.014Z,15.95
2022-10-02T03:12:05.899Z,16.00
2022-10-02T03:15:13.189Z,15.60
2022-10-02T03:18:03.929Z,16.30
2022-10-02T03:21:07.569Z,13.77
2022-10-02T03:24:15.511Z,14.10
2022-10-02T03:27:08.986Z,13.52
2022-10-02T03:30:02.214Z,13.45
2022-10-02T03:32:52.968Z,14.55
2022-10-02T03:35:38.280Z,14.23
2022-10-02T03:38:24.781Z,14.23
2022-10-02T03:41:10.493Z,15.02
2022-10-02T03:43:55.562Z,15.20
2022-10-02T03:46:40.813Z,15.00
2022-10-02T03:49:25.978Z,15.20
2022-10-02T03:52:16.001Z,14.57
2022-10-02T03:55:12.894Z,13.85
2022-10-02T03:57:59.267Z,14.73
2022-10-02T04:01:01.406Z,14.13
2022-10-02T04:03:55.403Z,13.82
2022-10-02T04:06:50.302Z,15.00
2022-10-02T04:10:04.541Z,14.25
2022-10-02T04:12:52.623Z,14.52
2022-10-02T04:15:52.328Z,14.10
2022-10-02T04:18:42.910Z,13.90
2022-10-02T04:21:42.933Z,13.77
2022-10-02T04:24:46.998Z,13.65
2022-10-02T04:27:39.991Z,12.65
2022-10-02T04:30:25.205Z,12.93
2022-10-02T04:33:17.215Z,11.32
2022-10-02T04:36:08.203Z,11.40
2022-10-02T04:39:12.655Z,10.68
2022-10-02T04:42:14.645Z,10.43
2022-10-02T04:45:02.210Z,9.63
2022-10-02T04:48:22.560Z,10.10
2022-10-02T04:51:26.737Z,9.18
2022-10-02T04:54:29.794Z,8.05
2022-10-02T05:00:12.919Z,8.20
2022-10-02T05:03:10.302Z,8.73
2022-10-02T05:06:01.238Z,7.85
2022-10-02T05:09:04.470Z,7.28
2022-10-02T05:12:28.787Z,7.57
2022-10-02T05:15:19.695Z,6.95
2022-10-02T05:18:41.127Z,6.28
2022-10-02T05:21:44.009Z,6.25
2022-10-02T05:24:47.192Z,6.57
2022-10-02T05:27:50.349Z,6.72
2022-10-02T05:31:10.705Z,6.88
2022-10-02T05:34:19.826Z,7.20
2022-10-02T05:37:15.587Z,7.03
2022-10-02T05:40:18.981Z,6.18
2022-10-02T05:43:06.916Z,5.43
2022-10-02T05:45:58.468Z,4.88
2022-10-02T05:49:13.600Z,4.95
2022-10-02T05:52:37.179Z,4.63
2022-10-02T05:55:27.888Z,4.07
2022-10-02T05:58:24.276Z,3.80
2022-10-02T06:01:19.435Z,2.47
2022-10-02T06:04:33.249Z,2.05
2022-10-02T06:07:20.186Z,1.90
2022-10-02T06:10:18.711Z,2.10
2022-10-02T06:13:30.476Z,2.25
2022-10-02T06:16:51.203Z,2.30
2022-10-02T06:19:45.146Z,2.47
2022-10-02T06:22:39.366Z,2.05
2022-10-02T06:25:33.239Z,2.25
2022-10-02T06:28:27.209Z,2.55
2022-10-02T06:31:30.678Z,2.72
2022-10-02T06:34:15.878Z,3.15
2022-10-02T06:37:17.591Z,3.20
2022-10-02T06:40:30.446Z,3.40
2022-10-02T06:43:33.690Z,3.40
2022-10-02T06:46:35.639Z,3.58
2022-10-02T06:49:32.992Z,3.60
2022-10-02T06:52:38.288Z,3.38
2022-10-02T06:55:40.476Z,3.90
2022-10-02T06:58:34.396Z,3.83
2022-10-02T07:01:31.037Z,3.53
2022-10-02T07:04:31.574Z,3.38
2022-10-02T07:07:19.282Z,3.33
2022-10-02T07:10:25.524Z,3.88
2022-10-02T07:13:25.373Z,3.00
2022-10-02T07:16:37.978Z,3.40
2022-10-02T07:19:38.174Z,3.20
2022-10-02T07:22:43.867Z,3.33
2022-10-02T07:25:35.825Z,3.25
2022-10-02T07:28:43.043Z,2.88
2022-10-02T07:32:00.182Z,3.30
2022-10-02T07:35:26.632Z,3.30
2022-10-02T07:38:48.295Z,3.10
2022-10-02T07:41:52.190Z,2.63
2022-10-02T07:45:03.475Z,2.95
2022-10-02T07:48:18.852Z,2.50
2022-10-02T07:51:26.582Z,3.00
2022-10-02T07:54:33.377Z,2.60
2022-10-02T07:58:02.974Z,2.47
2022-10-02T08:01:13.304Z,2.63
2022-10-02T08:04:36.922Z,2.17
2022-10-02T08:07:22.461Z,2.50
2022-10-02T08:10:12.293Z,2.50
2022-10-02T08:13:04.419Z,2.90
2022-10-02T08:15:54.955Z,2.90
2022-10-02T08:18:48.489Z,2.60
2022-10-02T08:21:43.115Z,2.70
2022-10-02T08:24:36.041Z,2.10
2022-10-02T08:27:28.198Z,2.40
2022-10-02T08:30:13.978Z,2.10
2022-10-02T08:32:58.589Z,1.92
2022-10-02T08:36:18.870Z,2.10
2022-10-02T08:39:09.453Z,2.47
2022-10-02T08:42:19.117Z,2.20
2022-10-02T08:45:23.615Z,2.40
2022-10-02T08:48:48.989Z,2.25
2022-10-02T08:52:00.331Z,2.33
2022-10-02T08:55:38.025Z,2.28
2022-10-02T08:58:43.310Z,2.00
2022-10-02T09:01:38.644Z,2.10
2022-10-02T09:05:00.303Z,2.10
2022-10-02T09:08:07.661Z,1.50
2022-10-02T09:11:01.886Z,1.80
2022-10-02T09:14:12.093Z,1.70
2022-10-02T09:17:15.683Z,1.60
2022-10-02T09:20:19.164Z,1.50
2022-10-02T09:23:22.648Z,1.85
2022-10-02T09:26:19.150Z,1.80
2022-10-02T09:29:32.349Z,1.77
2022-10-02T09:32:42.608Z,1.92
2022-10-02T09:35:54.538Z,2.08
2022-10-02T09:38:55.174Z,2.25
2022-10-02T09:41:49.682Z,2.20
2022-10-02T09:45:01.231Z,2.28
2022-10-02T09:48:04.684Z,2.38
2022-10-02T09:51:26.866Z,2.20
2022-10-02T09:54:21.058Z,2.30
2022-10-02T09:57:31.120Z,2.38
2022-10-02T10:00:44.224Z,2.08
2022-10-02T10:03:47.186Z,2.83
2022-10-02T10:06:44.039Z,2.60
2022-10-02T10:09:41.153Z,2.55
2022-10-02T10:12:48.925Z,2.78
2022-10-02T10:15:56.976Z,2.72
2022-10-02T10:18:47.391Z,2.83
2022-10-02T10:21:58.270Z,3.63
2022-10-02T10:25:09.642Z,2.85
2022-10-02T10:28:23.823Z,3.40
2022-10-02T10:31:18.095Z,3.80
2022-10-02T10:34:37.264Z,3.22
2022-10-02T10:38:13.671Z,2.75
2022-10-02T10:41:30.037Z,3.30
2022-10-02T10:44:30.998Z,3.10
2022-10-02T10:47:43.190Z,3.50
2022-10-02T10:50:49.525Z,2.95
2022-10-02T10:53:49.156Z,2.70
2022-10-02T10:57:12.693Z,2.58
2022-10-02T11:00:12.339Z,2.55
2022-10-02T11:03:29.396Z,2.80
2022-10-02T11:06:32.642Z,2.78
2022-10-02T11:09:32.410Z,2.60
2022-10-02T11:12:33.341Z,2.80
2022-10-02T11:15:51.912Z,3.53
2022-10-02T11:19:16.766Z,3.33
2022-10-02T11:22:07.785Z,3.38
2022-10-02T11:25:13.997Z,2.83
2022-10-02T11:28:27.954Z,3.05
2022-10-02T11:31:41.951Z,3.00
2022-10-02T11:34:54.874Z,3.50
2022-10-02T11:38:18.930Z,2.90
2022-10-02T11:41:12.681Z,3.03
2022-10-02T11:43:59.130Z,2.42
2022-10-02T11:47:17.412Z,3.03
2022-10-02T11:50:34.713Z,2.72
2022-10-02T11:53:43.986Z,2.65
2022-10-02T11:56:35.033Z,2.85
2022-10-02T11:59:41.622Z,3.03
2022-10-02T12:02:56.920Z,3.13
2022-10-02T12:06:20.330Z,2.95
2022-10-02T12:09:19.638Z,3.03
2022-10-02T12:12:23.468Z,2.78
2022-10-02T12:15:15.307Z,2.60
2022-10-02T12:18:26.480Z,2.40
2022-10-02T12:22:24.164Z,2.80
2022-10-02T12:25:46.588Z,2.92
2022-10-02T12:28:40.598Z,2.88
2022-10-02T12:31:37.747Z,3.08
2022-10-02T12:34:54.917Z,2.92
2022-10-02T12:37:55.935Z,3.35
2022-10-02T12:41:07.978Z,2.90
2022-10-02T12:43:58.932Z,3.08
2022-10-02T12:47:09.324Z,2.95
2022-10-02T12:50:21.078Z,2.92
2022-10-02T12:53:25.067Z,3.45
2022-10-02T12:56:55.819Z,3.10
2022-10-02T12:59:58.038Z,2.40
2022-10-02T13:03:04.920Z,2.65
2022-10-02T13:06:18.449Z,2.90
2022-10-02T13:09:19.341Z,2.92
2022-10-02T13:12:31.853Z,3.17
2022-10-02T13:15:22.905Z,3.10
2022-10-02T13:18:52.336Z,2.88
2022-10-02T13:22:01.956Z,3.30
2022-10-02T13:28:13.051Z,3.00
2022-10-02T13:31:11.313Z,2.95
2022-10-02T13:34:08.816Z,2.42
2022-10-02T13:37:02.341Z,2.60
2022-10-02T13:40:02.384Z,2.30
2022-10-02T13:43:17.323Z,3.40
2022-10-02T13:46:18.905Z,3.40
2022-10-02T13:49:31.204Z,2.45
2022-10-02T13:52:34.425Z,2.80
2022-10-02T13:58:53.017Z,2.92
2022-10-02T14:01:50.041Z,3.10
2022-10-02T14:04:54.826Z,2.63
2022-10-02T14:07:58.960Z,3.08
2022-10-02T14:10:52.799Z,3.75
2022-10-02T14:14:01.206Z,3.17
2022-10-02T14:17:00.582Z,3.78
2022-10-02T14:20:00.738Z,3.40
2022-10-02T14:23:10.032Z,3.03
2022-10-02T14:26:16.404Z,3.50
2022-10-02T14:29:09.070Z,3.60
2022-10-02T14:32:20.533Z,3.55
2022-10-02T14:35:33.634Z,3.58
2022-10-02T14:38:21.270Z,3.83
2022-10-02T14:41:27.624Z,3.92
2022-10-02T14:44:34.736Z,3.58
2022-10-02T14:47:35.266Z,4.40
2022-10-02T14:50:49.160Z,3.60
2022-10-02T14:54:01.943Z,5.00
2022-10-02T14:57:15.204Z,4.25
2022-10-02T15:00:24.149Z,3.75
2022-10-02T15:03:23.616Z,4.15
2022-10-02T15:06:08.352Z,3.85
2022-10-02T15:09:13.342Z,3.58
2022-10-02T15:12:07.222Z,2.88
2022-10-02T15:14:52.070Z,2.75
2022-10-02T15:17:55.043Z,2.80
2022-10-02T15:21:00.646Z,2.88
2022-10-02T15:23:51.561Z,3.22
2022-10-02T15:29:33.988Z,3.10
2022-10-02T15:33:01.520Z,3.63
2022-10-02T15:35:46.533Z,3.40
2022-10-02T15:38:50.165Z,4.15
2022-10-02T15:41:59.755Z,3.20
2022-10-02T15:45:11.003Z,4.32
2022-10-02T15:48:14.439Z,3.55
2022-10-02T15:50:59.167Z,3.72
2022-10-02T15:54:05.582Z,3.95
2022-10-02T15:57:33.527Z,3.83
2022-10-02T16:00:20.876Z,4.00
2022-10-02T16:03:15.598Z,3.83
2022-10-02T16:06:13.007Z,3.72
2022-10-02T16:09:09.706Z,3.50
2022-10-02T16:12:17.290Z,3.00
2022-10-02T16:15:17.679Z,2.95
2022-10-02T16:18:05.513Z,3.47
2022-10-02T16:20:53.281Z,3.15
2022-10-02T16:23:53.428Z,4.20
2022-10-02T16:27:17.371Z,3.15
2022-10-02T16:30:10.492Z,3.70
2022-10-02T16:33:14.330Z,3.33
2022-10-02T16:36:37.786Z,3.42
2022-10-02T16:39:54.699Z,3.33
2022-10-02T16:43:32.189Z,3.10
2022-10-02T16:46:25.462Z,3.33
2022-10-02T16:49:16.264Z,3.50
2022-10-02T16:55:34.097Z,3.10
2022-10-02T16:58:28.087Z,3.25
2022-10-02T17:01:25.716Z,3.90
2022-10-02T17:04:16.807Z,3.60
2022-10-02T17:10:01.755Z,3.92
2022-10-02T17:13:13.243Z,3.28
2022-10-02T17:16:42.178Z,4.70
2022-10-02T17:19:55.594Z,3.85
2022-10-02T17:23:10.029Z,4.43
2022-10-02T17:26:03.823Z,4.72
2022-10-02T17:28:56.724Z,4.07
2022-10-02T17:31:53.778Z,4.38
2022-10-02T17:34:48.917Z,4.70
2022-10-02T17:37:52.820Z,4.75
2022-10-02T17:43:38.655Z,4.90
2022-10-02T17:47:01.245Z,6.20
2022-10-02T17:49:49.034Z,7.57
2022-10-02T17:53:11.198Z,6.57
2022-10-02T17:56:30.017Z,7.72
2022-10-02T17:59:21.450Z,6.53
2022-10-02T18:02:40.319Z,6.53
2022-10-02T18:05:53.543Z,5.95
2022-10-02T18:09:00.460Z,6.15
2022-10-02T18:12:06.937Z,6.95
2022-10-02T18:15:16.361Z,6.93
2022-10-02T18:18:13.282Z,6.03
2022-10-02T18:21:53.158Z,6.30
2022-10-02T18:25:11.133Z,5.53
2022-10-02T18:28:23.597Z,5.68
2022-10-02T18:31:54.672Z,5.45
2022-10-02T18:35:03.649Z,5.25
2022-10-02T18:37:58.303Z,4.95
2022-10-02T18:41:25.489Z,5.78
2022-10-02T18:44:33.641Z,5.70
2022-10-02T18:47:52.353Z,5.40
2022-10-02T18:51:07.211Z,5.60
2022-10-02T18:54:07.454Z,5.13
2022-10-02T18:57:07.222Z,5.15
2022-10-02T19:00:14.900Z,5.88
2022-10-02T19:03:17.140Z,5.13
2022-10-02T19:06:26.957Z,5.72
2022-10-02T19:09:26.372Z,5.90
2022-10-02T19:12:23.349Z,5.65
2022-10-02T19:15:20.736Z,5.35
2022-10-02T19:18:13.967Z,6.07
2022-10-02T19:21:12.508Z,5.97
2022-10-02T19:24:14.574Z,5.85
2022-10-02T19:27:05.273Z,5.65
2022-10-02T19:29:57.497Z,6.22
2022-10-02T19:32:42.334Z,6.00
2022-10-02T19:35:33.824Z,5.30
2022-10-02T19:38:38.241Z,5.47
2022-10-02T19:41:23.263Z,5.28
2022-10-02T19:44:37.644Z,6.05
2022-10-02T19:47:28.877Z,5.57
2022-10-02T19:50:39.743Z,5.68
2022-10-02T19:53:32.788Z,5.47
2022-10-02T19:56:25.699Z,5.13
2022-10-02T19:59:14.546Z,5.05
2022-10-02T20:02:10.591Z,4.90
2022-10-02T20:05:00.723Z,4.78
2022-10-02T20:07:47.723Z,5.30
2022-10-02T20:10:36.221Z,5.97
2022-10-02T20:13:42.901Z,4.80
2022-10-02T20:16:46.100Z,4.70
2022-10-02T20:19:35.612Z,4.40
2022-10-02T20:22:54.921Z,5.30
2022-10-02T20:25:47.629Z,4.40
2022-10-02T20:28:41.865Z,4.90
2022-10-02T20:31:39.602Z,4.30
2022-10-02T20:34:43.680Z,4.95
2022-10-02T20:37:34.287Z,5.03
2022-10-02T20:40:26.968Z,4.68
2022-10-02T20:43:45.648Z,4.97
2022-10-02T20:46:33.291Z,5.20
2022-10-02T20:49:39.695Z,5.13
2022-10-02T20:52:24.315Z,5.45
2022-10-02T20:55:44.486Z,5.93
2022-10-02T20:58:50.747Z,5.70
2022-10-02T21:02:00.569Z,6.35
2022-10-02T21:05:20.414Z,6.68
2022-10-02T21:08:25.508Z,6.28
2022-10-02T21:11:20.427Z,6.70
2022-10-02T21:14:26.780Z,6.43
2022-10-02T21:17:18.061Z,6.53
2022-10-02T21:20:49.821Z,5.60
2022-10-02T21:23:36.162Z,5.70
2022-10-02T21:26:40.007Z,4.68
2022-10-02T21:29:35.361Z,5.38
2022-10-02T21:32:55.507Z,5.07
2022-10-02T21:36:08.576Z,5.63
2022-10-02T21:38:56.861Z,5.55
2022-10-02T21:42:17.141Z,6.50
2022-10-02T21:45:32.702Z,6.72
2022-10-02T21:48:36.457Z,7.00
2022-10-02T21:51:33.572Z,7.00
2022-10-02T21:54:53.276Z,7.25
2022-10-02T21:57:56.947Z,7.45
2022-10-02T22:01:07.805Z,6.97
2022-10-02T22:04:37.620Z,7.68
2022-10-02T22:08:07.602Z,6.95
2022-10-02T22:11:23.483Z,5.85
2022-10-02T22:14:26.377Z,6.20
2022-10-02T22:17:23.493Z,5.68
2022-10-02T22:20:44.033Z,5.88
2022-10-02T22:23:57.751Z,5.78
2022-10-02T22:26:45.328Z,5.50
2022-10-02T22:29:53.080Z,5.20
2022-10-02T22:33:12.797Z,6.15
2022-10-02T22:36:39.733Z,5.53
2022-10-02T22:39:24.259Z,5.57
2022-10-02T22:42:31.453Z,6.05
2022-10-02T22:45:28.703Z,4.95
2022-10-02T22:48:51.206Z,5.43
2022-10-02T22:51:51.855Z,5.10
2022-10-02T22:55:02.450Z,5.97
2022-10-02T22:58:01.918Z,5.85
2022-10-02T23:01:07.865Z,5.35
2022-10-02T23:04:21.165Z,4.97
2022-10-02T23:07:21.578Z,5.35
2022-10-02T23:10:55.003Z,4.88
2022-10-02T23:14:37.892Z,4.72
2022-10-02T23:17:52.157Z,5.00
2022-10-02T23:20:53.230Z,5.40
2022-10-02T23:24:11.983Z,4.68
2022-10-02T23:27:10.033Z,4.40
2022-10-02T23:30:11.763Z,5.57
2022-10-02T23:33:18.458Z,4.63
2022-10-02T23:36:29.891Z,4.75
2022-10-02T23:39:43.990Z,4.80
2022-10-02T23:42:52.094Z,4.38
2022-10-02T23:45:47.874Z,4.50
2022-10-02T23:48:32.948Z,3.72
2022-10-02T23:51:45.303Z,4.35
2022-10-02T23:55:07.395Z,4.50
2022-10-02T23:58:12.573Z,4.38
